MST,Max TemperatureF,Mean TemperatureF,Min TemperatureF,Max Dew PointF,MeanDew PointF,Min DewpointF,Max Humidity, Mean Humidity, Min Humidity, Max Sea Level PressureIn, Mean Sea Level PressureIn, Min Sea Level PressureIn, Max VisibilityMiles, Mean VisibilityMiles, Min VisibilityMiles, Max Wind SpeedMPH, Mean Wind SpeedMPH, Max Gust SpeedMPH,PrecipitationIn, CloudCover, Events, WindDirDegrees
2013-2-1,58,37,15,26,17,12,92,55,17,30.24,30.13,29.99,10,7,0,21,6,24,0.00,3,Fog,305
2013-2-2,57,39,20,21,15,11,77,48,18,30.38,30.28,30.19,10,10,10,15,6,16,0.00,0,,247
2013-2-3,50,37,23,20,17,12,68,49,29,30.26,30.03,29.86,10,10,10,16,6,17,0.00,0,,282
2013-2-4,59,41,23,14,10,7,55,35,14,30.05,29.93,29.81,10,10,10,15,8,17,0.00,0,,251
2013-2-5,59,41,23,17,13,8,55,36,17,30.11,29.97,29.86,10,10,10,20,9,24,0.00,0,,196
2013-2-6,67,45,22,29,18,12,65,40,15,29.94,29.80,29.64,10,10,10,28,12,37,0.00,1,,332
2013-2-7,52,41,30,29,20,12,69,47,24,30.17,30.10,29.94,10,10,10,29,8,37,0.00,2,,288
2013-2-8,61,42,22,23,17,9,57,39,20,30.10,29.90,29.69,10,10,10,31,13,41,0.00,0,,176
2013-2-9,63,48,32,31,23,1,82,45,8,29.67,29.49,29.29,10,6,1,39,13,53,0.08,4,Snow,280
2013-2-10,44,33,21,25,17,10,88,57,25,30.10,29.81,29.51,10,10,9,30,13,35,T,3,,346
2013-2-11,40,30,19,22,15,9,69,53,37,30.20,30.09,29.97,10,10,10,22,9,29,0.00,5,,133
2013-2-12,45,29,13,13,7,1,84,51,18,30.13,30.08,30.03,10,10,10,15,8,17,0.00,0,,277
2013-2-13,54,34,13,13,9,5,76,47,18,30.09,30.00,29.90,10,10,10,15,7,17,0.00,0,,268
2013-2-14,50,37,23,24,16,6,59,45,31,30.37,30.18,30.01,10,10,9,39,9,45,T,4,Snow,350
2013-2-15,47,31,15,19,14,10,74,51,27,30.43,30.35,30.25,10,10,10,26,6,31,0.00,2,,353
2013-2-16,60,39,17,15,11,8,74,44,13,30.33,30.13,29.94,10,10,10,16,7,18,0.00,0,,189
2013-2-17,68,45,22,17,4,-13,46,25,3,29.95,29.70,29.50,10,10,10,30,10,36,0.00,0,,260
2013-2-18,47,34,21,21,13,7,57,38,19,30.16,29.95,29.65,10,10,10,32,11,40,0.00,2,,10
2013-2-19,48,30,11,17,11,6,80,52,23,30.17,30.00,29.77,10,10,10,17,5,22,0.00,0,,95
2013-2-20,49,39,29,36,29,15,85,60,34,29.76,29.63,29.53,10,10,5,30,16,37,T,6,Rain-Snow,119
2013-2-21,35,26,16,28,20,13,92,75,58,30.01,29.76,29.55,10,8,2,28,13,33,0.01,7,Snow,40
2013-2-22,37,26,15,25,19,10,92,72,51,30.05,30.00,29.93,10,10,9,13,4,14,0.00,4,,210
2013-2-23,54,31,8,21,15,6,92,57,21,29.95,29.77,29.57,10,7,0,16,6,18,0.00,1,Fog,279
2013-2-24,35,28,21,28,23,16,92,76,59,30.07,29.84,29.60,10,8,2,29,12,35,T,6,Snow,1
2013-2-25,43,31,18,22,15,7,75,50,24,30.12,30.01,29.90,10,10,10,23,12,28,0.00,4,,350
2013-2-26,46,30,13,29,21,5,88,58,27,30.06,29.89,29.80,10,6,1,37,14,41,T,6,Snow,330
2013-2-27,45,33,21,22,13,3,75,47,18,30.29,30.24,30.12,10,10,10,29,15,35,T,1,,345
2013-2-28,50,32,13,13,6,-1,73,43,12,30.35,30.27,30.17,10,10,10,20,10,31,0.00,2,,311